Relatórios de METAR próximas

 

LPAR - Alverca, Portugal
Distance from station: S 38km
Actualizado: 12/06/2019 14:00
NÃO Actual
Céu Limpo
Céu Limpo
 Vento de N
Vento: N 24 km/h
Temperatura: 23°C
Ponto de Orvalho: 2°C
Humidade: 25%
Barómetro: 1014 hPa
Resumo: Céu Limpo
Visibilidade: greater than 10 km
2019/06/12 13:00 LPAR 121300Z 36013KT CAVOK 23/02 Q1014
LPPT - Lisbon/Portela, Portugal
Distance from station: S 52km
Actualizado: 18/06/2019 07:30
Muito Nublado
Muito Nublado
 Vento de SSO
Vento: SSO 24 km/h
Temperatura: 18°C
Ponto de Orvalho: 17°C
Humidade: 94%
Barómetro: 1013 hPa
Nuvens: Muito Nublado
Visibilidade: 10 km
Cloud details: Few Clouds 152 m
Muito Nublado 244 m
2019/06/18 06:30 LPPT 180630Z 20013KT 9999 FEW005 BKN008 18/17 Q1013
 
LPST - Sintra/Granja (a, Portugal
Distance from station: SSO 53km
Actualizado: 18/06/2019 07:00
Mist, Muito Nublado
Mist, Muito Nublado
 Vento de S
Vento: S 20 km/h
Temperatura: 17°C
Ponto de Orvalho: 16°C
Humidade: 94%
Barómetro: 1012 hPa
Resumo: Mist
Nuvens: Muito Nublado
Visibilidade: 3 km
Cloud details: Parc. Nublado 91 m
Muito Nublado 213 m
2019/06/18 06:00 LPST 180600Z 19011KT 3000 BR SCT003 BKN007 17/16 Q1012
LPMT - Montijo (por-Afb, Portugal
Distance from station: S 59km
Actualizado: 18/06/2019 07:00
Muito Nublado
Muito Nublado
 Vento de S
Vento: S 17 km/h
Temperatura: 18°C
Ponto de Orvalho: 17°C
Humidade: 94%
Barómetro: 1012 hPa
Nuvens: Muito Nublado
Visibilidade: 10 km
Cloud details: Muito Nublado 152 m
Muito Nublado 305 m
2019/06/18 06:00 LPMT 180600Z 19009KT 9999 BKN005 BKN010 18/17 Q1012
 
LPCS - Cascais, Portugal
Distance from station: SSO 63km
Actualizado: 18/06/2019 07:30
Mist, Encoberto
Mist, Encoberto
 Vento de S
Vento: S 19 km/h
Temperatura: 17°C
Ponto de Orvalho: 16°C
Humidade: 94%
Barómetro: 1013 hPa
Resumo: Mist
Nuvens: Encoberto
Visibilidade: 3 km
Cloud details: Encoberto 61 m
2019/06/18 06:30 LPCS 180630Z 17010KT 3000 BR OVC002 17/16 Q1013
LPMR - Monte Real(Por-A, Portugal
Distance from station: N 67km
Actualizado: 18/06/2019 07:00
Parc. Nublado
Parc. Nublado
 Vento de SSE
Vento: SSE 19 km/h
Temperatura: 16°C
Ponto de Orvalho: 15°C
Humidade: 94%
Barómetro: 1012 hPa
Nuvens: Parc. Nublado
Visibilidade: 10 km
Cloud details: Few Clouds 488 m
Parc. Nublado 914 m
2019/06/18 06:00 LPMR 180600Z 15010KT 9999 FEW016 SCT030 16/15 Q1012